createdAt,value
2023-10-09T00:00:58.503Z,7.86
2023-10-09T00:02:00.086Z,7.85
2023-10-09T00:03:01.733Z,7.83
2023-10-09T00:04:03.448Z,7.82
2023-10-09T00:05:04.961Z,7.82
2023-10-09T00:06:06.638Z,7.80
2023-10-09T00:07:10.552Z,7.78
2023-10-09T00:08:12.189Z,7.79
2023-10-09T00:09:13.687Z,7.77
2023-10-09T00:10:15.249Z,7.76
2023-10-09T00:11:17.068Z,7.75
2023-10-09T00:12:18.741Z,7.74
2023-10-09T00:13:20.325Z,7.73
2023-10-09T00:14:22.065Z,7.73
2023-10-09T00:15:23.625Z,7.72
2023-10-09T00:16:25.187Z,7.71
2023-10-09T00:17:26.641Z,7.70
2023-10-09T00:18:29.243Z,7.67
2023-10-09T00:19:30.792Z,7.66
2023-10-09T00:20:32.268Z,7.66
2023-10-09T00:21:34.098Z,7.64
2023-10-09T00:22:35.603Z,7.65
2023-10-09T00:23:37.079Z,7.64
2023-10-09T00:24:38.589Z,7.62
2023-10-09T00:25:40.215Z,7.62
2023-10-09T00:26:41.826Z,7.61
2023-10-09T00:27:43.307Z,7.60
2023-10-09T00:28:44.890Z,7.59
2023-10-09T00:29:46.455Z,7.58
2023-10-09T00:30:47.946Z,7.58
2023-10-09T00:31:49.475Z,7.57
2023-10-09T00:32:51.061Z,7.55
2023-10-09T00:33:52.606Z,7.55
2023-10-09T00:34:54.121Z,7.55
2023-10-09T00:35:56.423Z,7.52
2023-10-09T00:36:58.286Z,7.51
2023-10-09T00:37:59.824Z,7.51
2023-10-09T00:39:01.434Z,7.50
2023-10-09T00:40:02.906Z,7.48
2023-10-09T00:41:04.704Z,7.48
2023-10-09T00:42:06.251Z,7.47
2023-10-09T00:43:07.795Z,7.45
2023-10-09T00:44:09.333Z,7.45
2023-10-09T00:45:10.858Z,7.44
2023-10-09T00:46:13.410Z,7.43
2023-10-09T00:47:15.004Z,7.43
2023-10-09T00:48:16.598Z,7.42
2023-10-09T00:49:18.729Z,7.41
2023-10-09T00:50:20.191Z,7.40
2023-10-09T00:51:21.694Z,7.39
2023-10-09T00:52:23.172Z,7.39
2023-10-09T00:53:24.755Z,7.37
2023-10-09T00:54:26.238Z,7.37
2023-10-09T00:55:27.708Z,7.36
2023-10-09T00:56:29.183Z,7.35
2023-10-09T00:57:30.989Z,7.34
2023-10-09T00:58:33.343Z,7.34
2023-10-09T00:59:34.822Z,7.32
2023-10-09T01:00:36.295Z,7.32
2023-10-09T01:01:37.922Z,7.32
2023-10-09T01:02:39.514Z,7.31
2023-10-09T01:03:41.554Z,7.32
2023-10-09T01:04:43.230Z,7.30
2023-10-09T01:05:44.728Z,7.31
2023-10-09T01:06:46.211Z,7.30
2023-10-09T01:07:47.715Z,7.30
2023-10-09T01:08:50.854Z,7.29
2023-10-09T01:09:52.327Z,7.28
2023-10-09T01:10:53.861Z,7.28
2023-10-09T01:11:55.445Z,7.28
2023-10-09T01:12:56.937Z,7.28
2023-10-09T01:13:58.450Z,7.28
2023-10-09T01:14:59.913Z,7.29
2023-10-09T01:16:01.691Z,7.28
2023-10-09T01:17:03.186Z,7.27
2023-10-09T01:18:04.884Z,7.26
2023-10-09T01:19:08.657Z,7.27
2023-10-09T01:20:10.162Z,7.28
2023-10-09T01:21:12.044Z,7.27
2023-10-09T01:22:13.686Z,7.27
2023-10-09T01:23:18.330Z,7.26
2023-10-09T01:24:19.868Z,7.28
2023-10-09T01:25:21.717Z,7.27
2023-10-09T01:26:23.508Z,7.27
2023-10-09T01:27:25.368Z,7.27
2023-10-09T01:28:26.889Z,7.27
2023-10-09T01:29:28.582Z,7.28
2023-10-09T01:30:30.140Z,7.28
2023-10-09T01:31:31.892Z,7.27
2023-10-09T01:32:33.433Z,7.27
2023-10-09T01:33:34.944Z,7.28
2023-10-09T01:34:36.483Z,7.28
2023-10-09T01:35:38.254Z,7.27
2023-10-09T01:36:40.025Z,7.28
2023-10-09T01:37:41.501Z,7.28
2023-10-09T01:38:42.947Z,7.27
2023-10-09T01:39:44.452Z,7.28
2023-10-09T01:40:45.965Z,7.28
2023-10-09T01:41:47.453Z,7.29
2023-10-09T01:42:48.941Z,7.29
2023-10-09T01:43:50.406Z,7.30
2023-10-09T01:44:51.986Z,7.30
2023-10-09T01:45:53.598Z,7.30
2023-10-09T01:46:58.269Z,7.31
2023-10-09T01:48:00.064Z,7.31
2023-10-09T01:49:01.646Z,7.30
2023-10-09T01:50:03.302Z,7.31
2023-10-09T01:51:04.832Z,7.31
2023-10-09T01:52:06.555Z,7.31
2023-10-09T01:53:07.985Z,7.31
2023-10-09T01:54:09.528Z,7.32
2023-10-09T01:55:11.034Z,7.33
2023-10-09T01:56:12.520Z,7.34
2023-10-09T01:57:14.051Z,7.33
2023-10-09T01:58:15.624Z,7.33
2023-10-09T01:59:17.143Z,7.33
2023-10-09T02:00:18.664Z,7.34
2023-10-09T02:01:20.466Z,7.34
2023-10-09T02:02:21.966Z,7.36
2023-10-09T02:03:23.815Z,7.36
2023-10-09T02:04:25.404Z,7.37
2023-10-09T02:05:27.056Z,7.37
2023-10-09T02:06:28.605Z,7.38
2023-10-09T02:07:30.098Z,7.38
2023-10-09T02:08:31.627Z,7.38
2023-10-09T02:09:37.696Z,7.39
2023-10-09T02:10:39.235Z,7.40
2023-10-09T02:11:40.763Z,7.40
2023-10-09T02:12:42.237Z,7.39
2023-10-09T02:13:43.708Z,7.39
2023-10-09T02:14:45.520Z,7.41
2023-10-09T02:15:47.564Z,7.41
2023-10-09T02:16:49.393Z,7.41
2023-10-09T02:17:50.874Z,7.40
2023-10-09T02:18:52.470Z,7.41
2023-10-09T02:19:54.147Z,7.42
2023-10-09T02:20:55.633Z,7.43
2023-10-09T02:21:57.175Z,7.43
2023-10-09T02:22:58.618Z,7.42
2023-10-09T02:24:00.160Z,7.43
2023-10-09T02:25:01.679Z,7.43
2023-10-09T02:26:03.154Z,7.45
2023-10-09T02:27:04.743Z,7.44
2023-10-09T02:28:06.240Z,7.45
2023-10-09T02:29:07.688Z,7.46
2023-10-09T02:30:09.237Z,7.45
2023-10-09T02:31:10.766Z,7.46
2023-10-09T02:32:12.387Z,7.46
2023-10-09T02:33:13.909Z,7.46
2023-10-09T02:34:15.581Z,7.46
2023-10-09T02:35:17.216Z,7.45
2023-10-09T02:36:18.745Z,7.47
2023-10-09T02:37:21.524Z,7.47
2023-10-09T02:38:22.983Z,7.47
2023-10-09T02:39:25.169Z,7.48
2023-10-09T02:40:26.849Z,7.46
2023-10-09T02:41:28.321Z,7.48
2023-10-09T02:42:29.860Z,7.48
2023-10-09T02:43:31.382Z,7.49
2023-10-09T02:44:33.059Z,7.49
2023-10-09T02:45:34.642Z,7.48
2023-10-09T02:46:36.164Z,7.50
2023-10-09T02:47:37.744Z,7.50
2023-10-09T02:48:39.266Z,7.49
2023-10-09T02:49:40.753Z,7.50
2023-10-09T02:50:42.224Z,7.50
2023-10-09T02:51:43.726Z,7.50
2023-10-09T02:52:45.233Z,7.50
2023-10-09T02:53:46.707Z,7.50
2023-10-09T02:54:48.145Z,7.51
2023-10-09T02:55:49.591Z,7.52
2023-10-09T02:56:51.128Z,7.52
2023-10-09T02:57:52.640Z,7.52
2023-10-09T02:58:54.112Z,7.52
2023-10-09T02:59:55.620Z,7.51
2023-10-09T03:00:57.221Z,7.53
2023-10-09T03:01:58.705Z,7.53
2023-10-09T03:03:00.283Z,7.53
2023-10-09T03:04:01.957Z,7.50
2023-10-09T03:05:03.582Z,7.53
2023-10-09T03:06:05.116Z,7.54
2023-10-09T03:07:06.661Z,7.54
2023-10-09T03:08:08.143Z,7.54
2023-10-09T03:09:09.641Z,7.54
2023-10-09T03:10:11.261Z,7.54
2023-10-09T03:11:12.733Z,7.54
2023-10-09T03:12:14.321Z,7.55
2023-10-09T03:13:16.004Z,7.55
2023-10-09T03:14:17.472Z,7.54
2023-10-09T03:15:19.050Z,7.55
2023-10-09T03:16:22.311Z,7.55
2023-10-09T03:17:24.165Z,7.56
2023-10-09T03:18:25.761Z,7.55
2023-10-09T03:19:27.293Z,7.56
2023-10-09T03:20:28.777Z,7.55
2023-10-09T03:21:30.310Z,7.55
2023-10-09T03:22:31.854Z,7.57
2023-10-09T03:23:33.346Z,7.57
2023-10-09T03:24:34.893Z,7.56
2023-10-09T03:25:36.398Z,7.56
2023-10-09T03:26:41.062Z,7.57
2023-10-09T03:27:42.523Z,7.57
2023-10-09T03:28:44.019Z,7.57
2023-10-09T03:29:45.494Z,7.57
2023-10-09T03:30:47.011Z,7.58
2023-10-09T03:31:48.580Z,7.57
2023-10-09T03:32:50.083Z,7.57
2023-10-09T03:33:51.660Z,7.58
2023-10-09T03:34:53.192Z,7.59
2023-10-09T03:35:54.705Z,7.58
2023-10-09T03:36:56.175Z,7.59
2023-10-09T03:37:57.619Z,7.58
2023-10-09T03:38:59.207Z,7.59
2023-10-09T03:40:00.946Z,7.59
2023-10-09T03:41:02.823Z,7.60
2023-10-09T03:42:04.317Z,7.61
2023-10-09T03:43:05.831Z,7.61
2023-10-09T03:44:07.312Z,7.60
2023-10-09T03:45:08.804Z,7.60
2023-10-09T03:46:10.340Z,7.61
2023-10-09T03:47:11.833Z,7.62
2023-10-09T03:48:13.362Z,7.61
2023-10-09T03:49:14.924Z,7.63
2023-10-09T03:50:16.374Z,7.62
2023-10-09T03:51:17.878Z,7.62
2023-10-09T03:52:19.415Z,7.63
2023-10-09T03:53:20.872Z,7.63
2023-10-09T03:54:22.411Z,7.63
2023-10-09T03:55:28.044Z,7.63
2023-10-09T03:56:29.535Z,7.63
2023-10-09T03:57:31.112Z,7.64
2023-10-09T03:58:32.605Z,7.64
2023-10-09T03:59:34.112Z,7.64
2023-10-09T04:00:35.650Z,7.63
2023-10-09T04:01:37.173Z,7.64
2023-10-09T04:02:38.711Z,7.65
2023-10-09T04:03:40.340Z,7.64
2023-10-09T04:04:41.978Z,7.65
2023-10-09T04:05:43.504Z,7.65
2023-10-09T04:06:44.953Z,7.65
2023-10-09T04:07:47.112Z,7.65
2023-10-09T04:08:48.563Z,7.66
2023-10-09T04:09:50.062Z,7.65
2023-10-09T04:10:52.488Z,7.66
2023-10-09T04:11:55.730Z,7.66
2023-10-09T04:12:57.187Z,7.66
2023-10-09T04:13:58.659Z,7.66
2023-10-09T04:15:00.225Z,7.65
2023-10-09T04:16:01.767Z,7.66
2023-10-09T04:17:03.255Z,7.67
2023-10-09T04:18:04.795Z,7.66
2023-10-09T04:19:06.440Z,7.67
2023-10-09T04:20:07.967Z,7.66
2023-10-09T04:21:09.467Z,7.65
2023-10-09T04:22:11.062Z,7.65
2023-10-09T04:23:12.558Z,7.65
2023-10-09T04:24:14.246Z,7.64
2023-10-09T04:25:16.071Z,7.64
2023-10-09T04:26:17.593Z,7.64
2023-10-09T04:27:19.142Z,7.65
2023-10-09T04:28:21.202Z,7.64
2023-10-09T04:29:22.923Z,7.64
2023-10-09T04:30:24.854Z,7.64
2023-10-09T04:31:26.552Z,7.63
2023-10-09T04:32:28.063Z,7.64
2023-10-09T04:33:29.814Z,7.63
2023-10-09T04:34:31.516Z,7.62
2023-10-09T04:35:35.752Z,7.63
2023-10-09T04:36:37.274Z,7.63
2023-10-09T04:37:38.843Z,7.62
2023-10-09T04:38:40.428Z,7.62
2023-10-09T04:39:41.955Z,7.62
2023-10-09T04:40:43.678Z,7.61
2023-10-09T04:41:45.409Z,7.61
2023-10-09T04:42:46.875Z,7.61
2023-10-09T04:43:48.329Z,7.60
2023-10-09T04:44:49.810Z,7.60
2023-10-09T04:45:51.330Z,7.60
2023-10-09T04:46:52.797Z,7.59
2023-10-09T04:47:54.286Z,7.60
2023-10-09T04:48:55.841Z,7.60
2023-10-09T04:49:57.310Z,7.59
2023-10-09T04:50:58.888Z,7.60
2023-10-09T04:52:00.425Z,7.59
2023-10-09T04:53:01.924Z,7.60
2023-10-09T04:54:03.441Z,7.59
2023-10-09T04:55:04.924Z,7.60
2023-10-09T04:56:06.422Z,7.59
2023-10-09T04:57:07.966Z,7.58
2023-10-09T04:58:09.541Z,7.59
2023-10-09T04:59:11.026Z,7.58
2023-10-09T05:00:12.602Z,7.58
2023-10-09T05:01:14.292Z,7.58
2023-10-09T05:02:15.874Z,7.58
2023-10-09T05:03:17.528Z,7.57
2023-10-09T05:04:21.081Z,7.57
2023-10-09T05:05:22.735Z,7.57
2023-10-09T05:06:24.338Z,7.56
2023-10-09T05:07:25.830Z,7.56
2023-10-09T05:08:27.291Z,7.55
2023-10-09T05:09:28.788Z,7.57
2023-10-09T05:10:30.290Z,7.56
2023-10-09T05:11:31.809Z,7.55
2023-10-09T05:12:33.324Z,7.56
2023-10-09T05:13:34.797Z,7.55
2023-10-09T05:14:36.239Z,7.55
2023-10-09T05:15:37.742Z,7.54
2023-10-09T05:16:39.323Z,7.54
2023-10-09T05:17:41.056Z,7.52
2023-10-09T05:18:42.794Z,7.54
2023-10-09T05:19:44.301Z,7.53
2023-10-09T05:20:45.774Z,7.52
2023-10-09T05:21:47.289Z,7.53
2023-10-09T05:22:48.802Z,7.53
2023-10-09T05:23:50.299Z,7.52
2023-10-09T05:24:51.779Z,7.53
2023-10-09T05:25:53.313Z,7.52
2023-10-09T05:26:54.825Z,7.51
2023-10-09T05:27:56.282Z,7.51
2023-10-09T05:28:57.748Z,7.51
2023-10-09T05:29:59.250Z,7.51
2023-10-09T05:31:00.742Z,7.50
2023-10-09T05:32:02.302Z,7.50
2023-10-09T05:33:06.975Z,7.50
2023-10-09T05:34:08.473Z,7.49
2023-10-09T05:35:09.972Z,7.48
2023-10-09T05:36:11.478Z,7.48
2023-10-09T05:37:12.998Z,7.47
2023-10-09T05:38:14.445Z,7.47
2023-10-09T05:39:16.168Z,7.46
2023-10-09T05:40:18.013Z,7.46
2023-10-09T05:41:19.596Z,7.46
2023-10-09T05:42:21.174Z,7.45
2023-10-09T05:43:22.652Z,7.46
2023-10-09T05:44:24.122Z,7.46
2023-10-09T05:45:25.640Z,7.44
2023-10-09T05:46:27.166Z,7.44
2023-10-09T05:47:28.697Z,7.44
2023-10-09T05:48:30.207Z,7.44
2023-10-09T05:49:31.735Z,7.43
2023-10-09T05:50:33.203Z,7.42
2023-10-09T05:51:34.669Z,7.42
2023-10-09T05:52:36.289Z,7.43
2023-10-09T05:53:37.800Z,7.42
2023-10-09T05:54:39.348Z,7.42
2023-10-09T05:55:40.891Z,7.42
2023-10-09T05:56:42.384Z,7.41
2023-10-09T05:57:43.942Z,7.41
2023-10-09T05:58:45.449Z,7.39
2023-10-09T05:59:46.948Z,7.40
2023-10-09T06:00:48.437Z,7.40
2023-10-09T06:01:50.010Z,7.39
2023-10-09T06:02:59.749Z,7.40
2023-10-09T06:04:03.967Z,7.40
2023-10-09T06:05:05.692Z,7.40
2023-10-09T06:06:07.188Z,7.39
2023-10-09T06:07:08.674Z,7.39
2023-10-09T06:08:10.204Z,7.40
2023-10-09T06:09:11.873Z,7.40
2023-10-09T06:10:13.399Z,7.40
2023-10-09T06:11:14.897Z,7.40
2023-10-09T06:12:16.399Z,7.40
2023-10-09T06:13:17.998Z,7.40
2023-10-09T06:14:19.505Z,7.41
2023-10-09T06:15:23.925Z,7.41
2023-10-09T06:16:25.550Z,7.42
2023-10-09T06:17:27.031Z,7.42
2023-10-09T06:18:28.653Z,7.43
2023-10-09T06:19:30.139Z,7.43
2023-10-09T06:20:31.619Z,7.42
2023-10-09T06:21:33.142Z,7.43
2023-10-09T06:22:34.790Z,7.44
2023-10-09T06:23:36.295Z,7.44
2023-10-09T06:24:39.638Z,7.44
2023-10-09T06:25:42.350Z,7.44
2023-10-09T06:26:43.816Z,7.44
2023-10-09T06:27:45.329Z,7.45
2023-10-09T06:28:46.850Z,7.46
2023-10-09T06:29:48.299Z,7.46
2023-10-09T06:30:49.840Z,7.46
2023-10-09T06:31:51.921Z,7.45
2023-10-09T06:32:54.373Z,7.48
2023-10-09T06:33:55.924Z,7.48
2023-10-09T06:34:57.415Z,7.50
2023-10-09T06:35:58.888Z,7.51
2023-10-09T06:37:00.373Z,7.52
2023-10-09T06:38:01.834Z,7.52
2023-10-09T06:39:03.463Z,7.52
2023-10-09T06:40:04.995Z,7.53
2023-10-09T06:41:06.493Z,7.53
2023-10-09T06:42:08.003Z,7.54
2023-10-09T06:43:09.534Z,7.55
2023-10-09T06:44:11.131Z,7.56
2023-10-09T06:45:12.645Z,7.57
2023-10-09T06:46:14.178Z,7.58
2023-10-09T06:47:15.653Z,7.59
2023-10-09T06:48:17.271Z,7.60
2023-10-09T06:49:18.777Z,7.60
2023-10-09T06:50:20.238Z,7.61
2023-10-09T06:51:21.750Z,7.63
2023-10-09T06:52:23.242Z,7.64
2023-10-09T06:53:27.341Z,7.66
2023-10-09T06:54:29.381Z,7.68
2023-10-09T06:55:30.894Z,7.69
2023-10-09T06:56:32.569Z,7.72
2023-10-09T06:57:34.248Z,7.73
2023-10-09T06:58:35.739Z,7.74
2023-10-09T06:59:37.248Z,7.75
2023-10-09T07:00:38.757Z,7.77
2023-10-09T07:01:40.374Z,7.81
2023-10-09T07:02:42.012Z,7.83
2023-10-09T07:03:43.590Z,7.84
2023-10-09T07:04:45.214Z,7.84
2023-10-09T07:05:46.832Z,7.88
2023-10-09T07:06:48.337Z,7.91
2023-10-09T07:07:49.797Z,7.93
2023-10-09T07:08:51.889Z,7.95
2023-10-09T07:09:53.381Z,7.98
2023-10-09T07:10:54.832Z,8.00
2023-10-09T07:11:56.320Z,8.02
2023-10-09T07:12:57.928Z,8.05
2023-10-09T07:13:59.384Z,8.08
2023-10-09T07:15:00.883Z,8.11
2023-10-09T07:16:02.429Z,8.14
2023-10-09T07:17:03.981Z,8.16
2023-10-09T07:18:05.554Z,8.19
2023-10-09T07:19:07.023Z,8.21
2023-10-09T07:20:08.540Z,8.24
2023-10-09T07:21:10.013Z,8.27
2023-10-09T07:22:11.510Z,8.31
2023-10-09T07:23:12.979Z,8.34
2023-10-09T07:24:14.712Z,8.37
2023-10-09T07:25:16.399Z,8.38
2023-10-09T07:26:17.864Z,8.42
2023-10-09T07:27:19.355Z,8.44
2023-10-09T07:28:20.863Z,8.48
2023-10-09T07:29:22.347Z,8.50
2023-10-09T07:30:23.866Z,8.52
2023-10-09T07:31:25.612Z,8.55
2023-10-09T07:32:27.318Z,8.57
2023-10-09T07:33:28.866Z,8.59
2023-10-09T07:34:30.385Z,8.62
2023-10-09T07:35:33.035Z,8.64
2023-10-09T07:36:34.609Z,8.68
2023-10-09T07:37:36.096Z,8.70
2023-10-09T07:38:37.583Z,8.73
2023-10-09T07:39:39.738Z,8.76
2023-10-09T07:40:41.391Z,8.78
2023-10-09T07:41:42.912Z,8.81
2023-10-09T07:42:44.487Z,8.83
2023-10-09T07:43:47.582Z,8.86
2023-10-09T07:44:49.066Z,8.91
2023-10-09T07:45:50.631Z,8.91
2023-10-09T07:46:52.109Z,8.95
2023-10-09T07:47:53.614Z,8.97
2023-10-09T07:48:55.229Z,9.01
2023-10-09T07:49:56.714Z,9.03
2023-10-09T07:50:58.199Z,9.06
2023-10-09T07:51:59.683Z,9.09
2023-10-09T07:53:01.168Z,9.11
2023-10-09T07:54:02.644Z,9.13
2023-10-09T07:55:04.158Z,9.15
2023-10-09T07:56:05.659Z,9.18
2023-10-09T07:57:07.177Z,9.21
2023-10-09T07:58:08.652Z,9.24
2023-10-09T07:59:10.150Z,9.25
2023-10-09T08:00:11.658Z,9.31
2023-10-09T08:01:13.228Z,9.33
2023-10-09T08:02:14.745Z,9.36
2023-10-09T08:03:16.314Z,9.39
2023-10-09T08:04:18.093Z,9.41
2023-10-09T08:05:19.767Z,9.44
2023-10-09T08:06:21.350Z,9.47
2023-10-09T08:08:02.552Z,9.50
2023-10-09T08:08:44.330Z,9.55
2023-10-09T08:09:45.881Z,9.56
2023-10-09T08:10:47.377Z,9.58
2023-10-09T08:11:48.877Z,9.62
2023-10-09T08:12:50.457Z,9.63
2023-10-09T08:13:52.065Z,9.67
2023-10-09T08:14:53.586Z,9.71
2023-10-09T08:15:55.114Z,9.73
2023-10-09T08:16:56.700Z,9.76
2023-10-09T08:17:58.247Z,9.78
2023-10-09T08:18:59.750Z,9.82
2023-10-09T08:20:01.285Z,9.85
2023-10-09T08:21:02.754Z,9.88
2023-10-09T08:22:04.239Z,9.92
2023-10-09T08:23:05.696Z,9.94
2023-10-09T08:25:08.691Z,10.00
2023-10-09T08:26:10.251Z,10.04
2023-10-09T08:27:11.829Z,10.07
2023-10-09T08:28:13.307Z,10.10
2023-10-09T08:29:14.805Z,10.13
2023-10-09T08:30:16.360Z,10.17
2023-10-09T08:31:17.997Z,10.20
2023-10-09T08:34:15.772Z,10.23
2023-10-09T08:34:33.031Z,10.28
2023-10-09T08:35:02.449Z,10.34
2023-10-09T08:36:04.071Z,10.36
2023-10-09T08:37:05.864Z,10.38
2023-10-09T08:38:07.846Z,10.42
2023-10-09T08:39:09.345Z,10.46
2023-10-09T08:40:10.822Z,10.50
2023-10-09T08:41:12.292Z,10.54
2023-10-09T08:42:13.825Z,10.57
2023-10-09T08:43:15.284Z,10.60
2023-10-09T08:44:16.762Z,10.63
2023-10-09T08:45:18.421Z,10.68
2023-10-09T08:46:19.876Z,10.72
2023-10-09T08:47:21.356Z,10.76
2023-10-09T08:48:22.831Z,10.80
2023-10-09T08:49:24.336Z,10.83
2023-10-09T08:50:25.813Z,10.87
2023-10-09T08:51:27.608Z,10.91
2023-10-09T08:52:29.163Z,10.94
2023-10-09T08:53:30.700Z,10.97
2023-10-09T08:54:32.179Z,11.00
2023-10-09T08:55:33.743Z,11.05
2023-10-09T08:56:35.291Z,11.08
2023-10-09T08:57:36.812Z,11.12
2023-10-09T08:58:38.589Z,11.15
2023-10-09T08:59:40.140Z,11.19
2023-10-09T09:00:41.647Z,11.23
2023-10-09T09:01:43.250Z,11.26
2023-10-09T09:02:44.815Z,11.31
2023-10-09T09:03:46.383Z,11.34
2023-10-09T09:04:48.341Z,11.38
2023-10-09T09:05:49.936Z,11.43
2023-10-09T09:06:51.422Z,11.46
2023-10-09T09:07:53.002Z,11.49
2023-10-09T09:08:54.675Z,11.52
2023-10-09T09:09:56.159Z,11.56
2023-10-09T09:10:57.664Z,11.59
2023-10-09T09:11:59.190Z,11.65
2023-10-09T09:13:00.660Z,11.68
2023-10-09T09:14:02.217Z,11.72
2023-10-09T09:15:03.735Z,11.75
2023-10-09T09:16:05.248Z,11.79
2023-10-09T09:17:06.821Z,11.84
2023-10-09T09:18:08.557Z,11.88
2023-10-09T09:19:10.109Z,11.91
2023-10-09T09:20:11.647Z,11.94
2023-10-09T09:21:13.150Z,11.98
2023-10-09T09:22:14.657Z,12.03
2023-10-09T09:23:16.225Z,12.06
2023-10-09T09:24:17.820Z,12.11
2023-10-09T09:25:19.299Z,12.15
2023-10-09T09:26:20.784Z,12.19
2023-10-09T09:27:22.252Z,12.22
2023-10-09T09:28:23.689Z,12.29
2023-10-09T09:29:25.256Z,12.32
2023-10-09T09:30:26.770Z,12.36
2023-10-09T09:31:28.427Z,12.41
2023-10-09T09:32:30.008Z,12.45
2023-10-09T09:33:31.505Z,12.49
2023-10-09T09:34:33.005Z,12.53
2023-10-09T09:35:34.478Z,12.57
2023-10-09T09:36:35.932Z,12.61
2023-10-09T09:37:37.426Z,12.67
2023-10-09T09:38:38.882Z,12.71
2023-10-09T09:39:52.904Z,12.75
2023-10-09T09:40:57.225Z,12.80
2023-10-09T09:41:58.725Z,12.83
2023-10-09T09:43:00.213Z,12.87
2023-10-09T09:44:01.905Z,12.91
2023-10-09T09:45:03.660Z,12.94
2023-10-09T09:46:05.151Z,12.96
2023-10-09T09:47:06.736Z,13.01
2023-10-09T09:48:08.431Z,13.02
2023-10-09T09:49:09.920Z,13.07
2023-10-09T09:50:11.389Z,13.10
2023-10-09T09:51:12.849Z,13.14
2023-10-09T09:52:15.994Z,13.17
2023-10-09T09:53:17.586Z,13.20
2023-10-09T09:54:19.265Z,13.25
2023-10-09T09:55:20.903Z,13.26
2023-10-09T09:56:22.368Z,13.30
2023-10-09T09:57:23.873Z,13.32
2023-10-09T09:58:25.363Z,13.34
2023-10-09T09:59:26.849Z,13.37
2023-10-09T10:00:28.380Z,13.39
2023-10-09T10:01:29.918Z,13.42
2023-10-09T10:02:31.498Z,13.45
2023-10-09T10:03:33.098Z,13.48
2023-10-09T10:04:34.688Z,13.49
2023-10-09T10:05:36.238Z,13.51
2023-10-09T10:06:37.698Z,13.52
2023-10-09T10:07:39.237Z,13.56
2023-10-09T10:08:40.739Z,13.58
2023-10-09T10:09:42.225Z,13.62
2023-10-09T10:10:43.882Z,13.64
2023-10-09T10:11:45.630Z,13.68
2023-10-09T10:12:47.355Z,13.70
2023-10-09T10:13:48.867Z,13.74
2023-10-09T10:14:50.632Z,13.75
2023-10-09T10:15:52.141Z,13.78
2023-10-09T10:16:53.706Z,13.81
2023-10-09T10:17:55.314Z,13.84
2023-10-09T10:18:56.827Z,13.86
2023-10-09T10:19:58.371Z,13.88
2023-10-09T10:20:59.906Z,13.91
2023-10-09T10:22:01.428Z,13.93
2023-10-09T10:23:02.957Z,13.96
2023-10-09T10:24:04.472Z,13.96
2023-10-09T10:25:05.950Z,13.99
2023-10-09T10:26:07.488Z,14.02
2023-10-09T10:27:08.972Z,14.03
2023-10-09T10:28:10.426Z,14.05
2023-10-09T10:29:11.964Z,14.06
2023-10-09T10:30:13.490Z,14.07
2023-10-09T10:31:15.436Z,14.09
2023-10-09T10:32:17.010Z,14.11
2023-10-09T10:33:18.475Z,14.12
2023-10-09T10:34:20.017Z,14.12
2023-10-09T10:35:21.461Z,14.13
2023-10-09T10:36:24.612Z,14.14
2023-10-09T10:37:26.658Z,14.14
2023-10-09T10:38:28.120Z,14.14
2023-10-09T10:39:29.623Z,14.16
2023-10-09T10:40:31.121Z,14.16
2023-10-09T10:41:32.648Z,14.17
2023-10-09T10:42:34.142Z,14.18
2023-10-09T10:43:35.702Z,14.18
2023-10-09T10:44:37.621Z,14.20
2023-10-09T10:45:39.415Z,14.19
2023-10-09T10:46:41.032Z,14.21
2023-10-09T10:47:42.590Z,14.19
2023-10-09T10:48:44.096Z,14.19
2023-10-09T10:49:47.013Z,14.18
2023-10-09T10:50:48.510Z,14.21
2023-10-09T10:51:50.026Z,14.20
2023-10-09T10:52:51.549Z,14.21
2023-10-09T10:53:53.129Z,14.20
2023-10-09T10:54:54.719Z,14.23
2023-10-09T10:55:56.291Z,14.22
2023-10-09T10:56:57.843Z,14.24
2023-10-09T10:57:59.335Z,14.23
2023-10-09T10:59:00.872Z,14.23
2023-10-09T11:00:02.411Z,14.24
2023-10-09T11:01:03.885Z,14.23
2023-10-09T11:02:05.428Z,14.23
2023-10-09T11:03:07.174Z,14.23
2023-10-09T11:04:09.084Z,14.24
2023-10-09T11:05:10.818Z,14.23
2023-10-09T11:06:15.366Z,14.21
2023-10-09T11:07:16.963Z,14.21
2023-10-09T11:08:18.442Z,14.18
2023-10-09T11:09:19.896Z,14.16
2023-10-09T11:10:21.351Z,14.14
2023-10-09T11:11:23.448Z,14.14
2023-10-09T11:12:24.972Z,14.13
2023-10-09T11:13:26.451Z,14.12
2023-10-09T11:14:27.904Z,14.10
2023-10-09T11:15:29.357Z,14.10
2023-10-09T11:16:30.832Z,14.07
2023-10-09T11:17:32.358Z,14.06
2023-10-09T11:18:33.883Z,14.04
2023-10-09T11:19:35.401Z,14.03
2023-10-09T11:20:36.872Z,14.03
2023-10-09T11:21:38.391Z,14.01
2023-10-09T11:22:39.917Z,14.01
2023-10-09T11:23:41.423Z,13.99
2023-10-09T11:24:42.931Z,13.98
2023-10-09T11:25:44.431Z,13.97
2023-10-09T11:26:45.927Z,13.96
2023-10-09T11:27:50.535Z,13.95
2023-10-09T11:28:52.039Z,13.93
2023-10-09T11:29:53.564Z,13.92
2023-10-09T11:30:55.340Z,13.91
2023-10-09T11:31:56.927Z,13.90
2023-10-09T11:32:58.436Z,13.90
2023-10-09T11:33:59.929Z,13.89
2023-10-09T11:35:01.470Z,13.89
2023-10-09T11:36:02.964Z,13.88
2023-10-09T11:37:04.468Z,13.89
2023-10-09T11:38:06.004Z,13.90
2023-10-09T11:39:07.495Z,13.90
2023-10-09T11:40:08.974Z,13.90
2023-10-09T11:41:10.499Z,13.91
2023-10-09T11:42:11.972Z,13.91
2023-10-09T11:43:13.458Z,13.92
2023-10-09T11:44:15.137Z,13.94
2023-10-09T11:45:16.914Z,13.94
2023-10-09T11:46:18.457Z,13.95
2023-10-09T11:47:20.434Z,13.97
2023-10-09T11:48:22.586Z,13.97
2023-10-09T11:49:24.216Z,13.99
2023-10-09T11:50:25.732Z,14.00
2023-10-09T11:51:27.221Z,14.02
2023-10-09T11:52:28.777Z,14.03
2023-10-09T11:53:30.337Z,14.04
2023-10-09T11:54:31.812Z,14.06
2023-10-09T11:55:33.329Z,14.07
2023-10-09T11:56:34.806Z,14.07
2023-10-09T11:57:36.375Z,14.07
2023-10-09T11:58:37.984Z,14.08
2023-10-09T11:59:39.535Z,14.10
2023-10-09T12:00:41.201Z,14.10
2023-10-09T12:01:42.754Z,14.10
2023-10-09T12:02:44.386Z,14.10
2023-10-09T12:03:46.001Z,14.11
2023-10-09T12:04:47.712Z,14.13
2023-10-09T12:05:49.333Z,14.13
2023-10-09T12:06:50.828Z,14.13
2023-10-09T12:07:52.368Z,14.13
2023-10-09T12:08:53.896Z,14.14
2023-10-09T12:09:55.371Z,14.13
2023-10-09T12:10:56.898Z,14.14
2023-10-09T12:12:04.574Z,14.16
2023-10-09T12:13:06.228Z,14.14
2023-10-09T12:14:07.774Z,14.15
2023-10-09T12:15:09.303Z,14.15
2023-10-09T12:16:11.049Z,14.15
2023-10-09T12:17:12.874Z,14.17
2023-10-09T12:18:14.409Z,14.16
2023-10-09T12:19:15.936Z,14.15
2023-10-09T12:20:17.521Z,14.17
2023-10-09T12:21:18.990Z,14.16
2023-10-09T12:22:20.465Z,14.17
2023-10-09T12:23:21.958Z,14.19
2023-10-09T12:24:23.573Z,14.18
2023-10-09T12:25:25.060Z,14.19
2023-10-09T12:26:26.569Z,14.18
2023-10-09T12:27:28.058Z,14.19
2023-10-09T12:28:29.629Z,14.21
2023-10-09T12:29:31.155Z,14.20
2023-10-09T12:30:32.644Z,14.21
2023-10-09T12:31:34.790Z,14.20
2023-10-09T12:32:36.297Z,14.21
2023-10-09T12:33:37.892Z,14.21
2023-10-09T12:34:39.582Z,14.21
2023-10-09T12:35:41.164Z,14.20
2023-10-09T12:36:42.724Z,14.21
2023-10-09T12:37:44.291Z,14.21
2023-10-09T12:38:45.799Z,14.23
2023-10-09T12:39:47.262Z,14.23
2023-10-09T12:40:51.821Z,14.23
2023-10-09T12:41:53.410Z,14.24
2023-10-09T12:42:54.904Z,14.25
2023-10-09T12:43:56.483Z,14.26
2023-10-09T12:44:57.998Z,14.26
2023-10-09T12:45:59.486Z,14.26
2023-10-09T12:47:01.094Z,14.28
2023-10-09T12:48:02.668Z,14.29
2023-10-09T12:49:04.211Z,14.29
2023-10-09T12:50:05.801Z,14.30
2023-10-09T12:51:07.353Z,14.30
2023-10-09T12:52:09.277Z,14.31
2023-10-09T12:53:10.838Z,14.32
2023-10-09T12:54:12.453Z,14.31
2023-10-09T12:55:14.132Z,14.30
2023-10-09T12:56:15.628Z,14.28
2023-10-09T12:57:17.142Z,14.27
2023-10-09T12:58:18.594Z,14.26
2023-10-09T12:59:20.077Z,14.21
2023-10-09T13:00:21.582Z,14.21
2023-10-09T13:01:23.141Z,14.18
2023-10-09T13:02:24.644Z,14.16
2023-10-09T13:03:26.166Z,14.13
2023-10-09T13:04:27.706Z,14.11
2023-10-09T13:05:29.212Z,14.08
2023-10-09T13:07:32.211Z,14.03
2023-10-09T13:08:33.707Z,13.99
2023-10-09T13:09:35.165Z,13.95
2023-10-09T13:10:36.650Z,13.93
2023-10-09T13:11:38.132Z,13.90
2023-10-09T13:12:40.680Z,13.88
2023-10-09T13:13:42.282Z,13.88
2023-10-09T13:14:43.753Z,13.86
2023-10-09T13:15:45.224Z,13.86
2023-10-09T13:16:47.195Z,13.84
2023-10-09T13:17:49.017Z,13.84
2023-10-09T13:18:50.564Z,13.85
2023-10-09T13:19:52.070Z,13.86
2023-10-09T13:20:53.556Z,13.86
2023-10-09T13:21:55.101Z,13.87
2023-10-09T13:22:56.630Z,13.87
2023-10-09T13:23:58.129Z,13.90
2023-10-09T13:24:59.576Z,13.90
2023-10-09T13:26:01.104Z,13.91
2023-10-09T13:27:02.616Z,13.91
2023-10-09T13:28:04.122Z,13.90
2023-10-09T13:29:05.721Z,13.90
2023-10-09T13:30:07.212Z,13.91
2023-10-09T13:31:08.677Z,13.91
2023-10-09T13:32:10.211Z,13.92
2023-10-09T13:33:11.773Z,13.91
2023-10-09T13:34:13.347Z,13.93